createdAt,value
2019-03-08T00:00:48.363Z,93.90
2019-03-08T00:03:17.354Z,93.70
2019-03-08T00:05:46.347Z,93.80
2019-03-08T00:08:15.345Z,93.60
2019-03-08T00:10:45.711Z,93.80
2019-03-08T00:13:14.658Z,93.70
2019-03-08T00:15:43.549Z,93.90
2019-03-08T00:18:12.445Z,94.00
2019-03-08T00:20:41.337Z,94.00
2019-03-08T00:23:10.634Z,94.10
2019-03-08T00:25:39.417Z,94.20
2019-03-08T00:28:08.618Z,94.20
2019-03-08T00:30:38.022Z,94.20
2019-03-08T00:33:07.015Z,94.40
2019-03-08T00:35:36.005Z,94.30
2019-03-08T00:38:05.002Z,94.20
2019-03-08T00:40:34.413Z,94.20
2019-03-08T00:43:04.108Z,94.20
2019-03-08T00:45:33.000Z,94.20
2019-03-08T00:48:01.995Z,94.30
2019-03-08T00:50:50.546Z,94.30
2019-03-08T00:53:19.842Z,94.20
2019-03-08T00:55:48.735Z,94.10
2019-03-08T00:58:17.625Z,94.20
2019-03-08T01:00:46.516Z,94.10
2019-03-08T01:03:15.406Z,94.10
2019-03-08T01:05:44.295Z,93.80
2019-03-08T01:08:13.502Z,94.20
2019-03-08T01:10:42.285Z,93.70
2019-03-08T01:13:10.970Z,94.20
2019-03-08T01:15:39.862Z,93.70
2019-03-08T01:18:08.753Z,93.80
2019-03-08T01:20:37.537Z,93.90
2019-03-08T01:23:06.434Z,93.80
2019-03-08T01:25:35.317Z,93.90
2019-03-08T01:28:09.635Z,93.70
2019-03-08T01:30:39.639Z,93.80
2019-03-08T01:33:08.629Z,93.70
2019-03-08T01:35:37.653Z,93.80
2019-03-08T01:38:06.529Z,94.10
2019-03-08T01:40:35.317Z,93.80
2019-03-08T01:43:04.625Z,93.80
2019-03-08T01:45:33.610Z,93.70
2019-03-08T01:48:02.771Z,93.60
2019-03-08T01:50:31.593Z,93.60
2019-03-08T01:53:00.484Z,93.50
2019-03-08T01:55:29.481Z,93.40
2019-03-08T01:57:58.374Z,93.60
2019-03-08T02:00:27.260Z,93.60
2019-03-08T02:02:56.150Z,93.50
2019-03-08T02:05:25.044Z,93.40
2019-03-08T02:07:53.935Z,93.50
2019-03-08T02:10:22.720Z,93.50
2019-03-08T02:12:51.611Z,93.30
2019-03-08T02:15:21.523Z,93.40
2019-03-08T02:17:50.722Z,93.30
2019-03-08T02:20:23.193Z,93.30
2019-03-08T02:22:51.368Z,93.40
2019-03-08T02:25:20.363Z,93.30
2019-03-08T02:27:49.258Z,93.30
2019-03-08T02:30:19.480Z,93.20
2019-03-08T02:32:48.570Z,93.40
2019-03-08T02:35:19.343Z,93.30
2019-03-08T02:37:48.398Z,93.30
2019-03-08T02:40:31.321Z,93.20
2019-03-08T02:43:00.815Z,92.90
2019-03-08T02:45:29.816Z,93.00
2019-03-08T02:47:58.813Z,92.90
2019-03-08T02:50:27.708Z,93.10
2019-03-08T02:52:56.600Z,93.20
2019-03-08T02:55:25.485Z,93.10
2019-03-08T02:57:54.378Z,93.10
2019-03-08T03:00:23.266Z,92.50
2019-03-08T03:02:52.257Z,92.70
2019-03-08T03:05:21.146Z,93.40
2019-03-08T03:07:50.139Z,93.60
2019-03-08T03:10:19.440Z,94.00
2019-03-08T03:12:48.227Z,94.10
2019-03-08T03:15:17.116Z,94.40
2019-03-08T03:17:46.012Z,94.10
2019-03-08T03:20:15.987Z,94.30
2019-03-08T03:22:44.915Z,93.80
2019-03-08T03:25:15.505Z,94.20
2019-03-08T03:27:44.441Z,94.10
2019-03-08T03:30:21.212Z,94.00
2019-03-08T03:32:50.126Z,93.90
2019-03-08T03:35:19.091Z,94.10
2019-03-08T03:37:48.291Z,94.10
2019-03-08T03:40:18.924Z,93.90
2019-03-08T03:42:47.833Z,93.90
2019-03-08T03:45:21.824Z,94.00
2019-03-08T03:47:50.816Z,94.40
2019-03-08T03:50:20.117Z,94.10
2019-03-08T03:52:49.005Z,94.10
2019-03-08T03:55:18.467Z,94.20
2019-03-08T03:57:47.505Z,94.30
2019-03-08T04:00:23.958Z,94.30
2019-03-08T04:02:53.068Z,94.00
2019-03-08T04:05:21.856Z,94.00
2019-03-08T04:07:50.751Z,94.10
2019-03-08T04:10:19.742Z,94.10
2019-03-08T04:12:48.829Z,94.00
2019-03-08T04:15:25.701Z,94.10
2019-03-08T04:17:54.718Z,93.90
2019-03-08T04:20:23.699Z,93.90
2019-03-08T04:22:52.579Z,93.90
2019-03-08T04:25:21.993Z,93.90
2019-03-08T04:27:50.679Z,93.80
2019-03-08T04:30:20.977Z,93.90
2019-03-08T04:32:50.412Z,93.80
2019-03-08T04:35:19.300Z,93.70
2019-03-08T04:37:48.084Z,93.60
2019-03-08T04:40:17.071Z,93.50
2019-03-08T04:42:45.865Z,93.60
2019-03-08T04:45:16.091Z,93.60
2019-03-08T04:47:44.876Z,93.60
2019-03-08T04:50:17.332Z,93.50
2019-03-08T04:52:45.323Z,93.60
2019-03-08T04:55:19.636Z,93.50
2019-03-08T04:57:49.036Z,93.60
2019-03-08T05:00:19.643Z,93.50
2019-03-08T05:02:48.469Z,93.50
2019-03-08T05:05:17.347Z,93.20
2019-03-08T05:07:46.239Z,93.10
2019-03-08T05:10:16.661Z,93.00
2019-03-08T05:12:45.655Z,93.10
2019-03-08T05:15:14.880Z,93.10
2019-03-08T05:17:43.844Z,93.30
2019-03-08T05:20:12.741Z,93.30
2019-03-08T05:22:41.729Z,93.10
2019-03-08T05:25:12.319Z,93.40
2019-03-08T05:27:41.152Z,93.50
2019-03-08T05:30:14.891Z,93.40
2019-03-08T05:32:43.845Z,93.40
2019-03-08T05:35:13.639Z,93.70
2019-03-08T05:37:42.652Z,93.40
2019-03-08T05:40:14.511Z,93.50
2019-03-08T05:42:43.604Z,93.40
2019-03-08T05:45:13.668Z,93.40
2019-03-08T05:47:42.514Z,93.40
2019-03-08T05:50:12.521Z,93.40
2019-03-08T05:52:41.627Z,93.30
2019-03-08T05:55:11.395Z,93.50
2019-03-08T05:57:40.326Z,93.50
2019-03-08T06:00:31.482Z,93.50
2019-03-08T06:02:55.221Z,93.50
2019-03-08T06:05:24.100Z,93.60
2019-03-08T06:07:53.092Z,93.70
2019-03-08T06:10:28.876Z,93.70
2019-03-08T06:12:58.147Z,93.90
2019-03-08T06:15:27.124Z,94.10
2019-03-08T06:17:56.645Z,94.10
2019-03-08T06:20:26.869Z,94.20
2019-03-08T06:22:55.753Z,93.90
2019-03-08T06:25:24.964Z,93.90
2019-03-08T06:27:53.850Z,93.90
2019-03-08T06:30:22.833Z,94.00
2019-03-08T06:32:52.139Z,94.10
2019-03-08T06:35:21.028Z,94.00
2019-03-08T06:37:49.921Z,93.90
2019-03-08T06:40:18.911Z,93.90
2019-03-08T06:42:47.907Z,94.20
2019-03-08T06:45:17.634Z,93.80
2019-03-08T06:47:46.716Z,93.90
2019-03-08T06:50:55.195Z,93.70
2019-03-08T06:53:03.538Z,93.50
2019-03-08T06:55:32.735Z,93.70
2019-03-08T06:58:03.608Z,93.60
2019-03-08T07:00:37.069Z,93.50
2019-03-08T07:03:07.603Z,93.50
2019-03-08T07:05:36.386Z,93.60
2019-03-08T07:08:05.908Z,93.60
2019-03-08T07:10:41.847Z,93.60
2019-03-08T07:13:10.736Z,93.40
2019-03-08T07:15:39.522Z,93.10
2019-03-08T07:18:13.193Z,93.00
2019-03-08T07:20:52.850Z,93.00
2019-03-08T07:23:28.024Z,92.70
2019-03-08T07:26:03.962Z,92.70
2019-03-08T07:28:42.067Z,92.70
2019-03-08T07:31:20.194Z,92.50
2019-03-08T07:33:55.239Z,92.30
2019-03-08T07:36:32.517Z,92.00
2019-03-08T07:39:15.312Z,92.00
2019-03-08T07:41:45.738Z,91.90
2019-03-08T07:44:16.374Z,92.10
2019-03-08T07:46:56.120Z,91.90
2019-03-08T07:49:29.306Z,91.50
2019-03-08T07:52:02.599Z,91.30
2019-03-08T07:54:53.202Z,91.30
2019-03-08T07:57:26.195Z,91.10
2019-03-08T07:59:59.806Z,91.30
2019-03-08T08:02:33.287Z,91.10
2019-03-08T08:05:19.991Z,90.70
2019-03-08T08:08:07.521Z,90.30
2019-03-08T08:10:49.931Z,89.30
2019-03-08T08:13:23.328Z,89.00
2019-03-08T08:15:57.131Z,87.90
2019-03-08T08:18:30.731Z,86.50
2019-03-08T08:21:06.895Z,85.60
2019-03-08T08:23:46.332Z,85.30
2019-03-08T08:26:16.861Z,86.00
2019-03-08T08:28:59.281Z,86.50
2019-03-08T08:31:47.617Z,86.50
2019-03-08T08:34:18.247Z,86.40
2019-03-08T08:36:54.308Z,87.10
2019-03-08T08:39:27.792Z,86.00
2019-03-08T08:41:58.229Z,84.90
2019-03-08T08:44:45.346Z,83.80
2019-03-08T08:47:27.967Z,84.70
2019-03-08T08:49:58.589Z,84.50
2019-03-08T08:52:29.125Z,82.50
2019-03-08T08:55:05.585Z,82.30
2019-03-08T08:57:38.988Z,81.50
2019-03-08T09:00:37.060Z,80.30
2019-03-08T09:03:24.075Z,79.70
2019-03-08T09:05:57.471Z,78.60
2019-03-08T09:08:37.116Z,76.80
2019-03-08T09:11:24.439Z,78.10
2019-03-08T09:14:13.650Z,76.30
2019-03-08T09:16:44.354Z,76.30
2019-03-08T09:19:14.973Z,78.30
2019-03-08T09:21:45.592Z,76.90
2019-03-08T09:24:16.431Z,73.90
2019-03-08T09:26:54.032Z,73.20
2019-03-08T09:29:41.504Z,67.00
2019-03-08T09:32:11.891Z,63.90
2019-03-08T09:34:42.864Z,63.10
2019-03-08T09:37:30.147Z,63.00
2019-03-08T09:40:15.840Z,61.30
2019-03-08T09:42:46.667Z,60.90
2019-03-08T09:45:32.234Z,62.20
2019-03-08T09:48:24.593Z,59.80
2019-03-08T09:50:57.988Z,59.40
2019-03-08T09:53:28.507Z,58.60
2019-03-08T09:55:59.145Z,59.00
2019-03-08T09:58:35.402Z,62.30
2019-03-08T10:01:16.059Z,63.80
2019-03-08T10:03:46.474Z,60.00
2019-03-08T10:06:35.661Z,58.30
2019-03-08T10:09:14.590Z,59.80
2019-03-08T10:11:47.178Z,59.80
2019-03-08T10:14:25.302Z,59.80
2019-03-08T10:17:14.951Z,60.80
2019-03-08T10:20:01.860Z,60.00
2019-03-08T10:22:47.392Z,57.20
2019-03-08T10:25:36.660Z,55.20
2019-03-08T10:28:14.613Z,55.00
2019-03-08T10:31:00.400Z,53.90
2019-03-08T10:33:31.799Z,55.70
2019-03-08T10:36:36.886Z,53.60
2019-03-08T10:39:15.812Z,52.40
2019-03-08T10:41:54.328Z,50.10
2019-03-08T10:44:26.192Z,49.80
2019-03-08T10:47:02.697Z,49.20
2019-03-08T10:49:33.290Z,49.00
2019-03-08T10:52:21.946Z,50.80
2019-03-08T10:55:10.395Z,49.60
2019-03-08T10:57:40.921Z,48.10
2019-03-08T11:00:23.536Z,46.00
2019-03-08T11:02:59.282Z,46.90
2019-03-08T11:05:48.251Z,49.20
2019-03-08T11:08:18.774Z,49.80
2019-03-08T11:10:55.861Z,49.40
2019-03-08T11:13:43.635Z,43.10
2019-03-08T11:16:20.264Z,42.90
2019-03-08T11:18:50.794Z,46.70
2019-03-08T11:21:37.907Z,48.90
2019-03-08T11:24:20.416Z,51.10
2019-03-08T11:27:07.129Z,52.50
2019-03-08T11:29:43.384Z,48.30
2019-03-08T11:32:22.998Z,49.30
2019-03-08T11:34:54.998Z,50.30
2019-03-08T11:37:25.522Z,51.50
2019-03-08T11:40:02.206Z,50.90
2019-03-08T11:42:32.623Z,51.00
2019-03-08T11:45:11.759Z,53.20
2019-03-08T11:47:58.769Z,54.40
2019-03-08T11:50:47.337Z,51.40
2019-03-08T11:53:20.925Z,51.60
2019-03-08T11:56:03.586Z,48.10
2019-03-08T11:58:35.699Z,44.50
2019-03-08T12:01:07.669Z,44.40
2019-03-08T12:03:40.963Z,42.80
2019-03-08T12:06:31.981Z,44.40
2019-03-08T12:09:18.802Z,46.70
2019-03-08T12:12:07.452Z,48.50
2019-03-08T12:14:55.062Z,51.50
2019-03-08T12:17:25.700Z,54.50
2019-03-08T12:20:12.402Z,56.50
2019-03-08T12:22:59.623Z,56.50
2019-03-08T12:25:40.822Z,57.30
2019-03-08T12:28:23.411Z,56.90
2019-03-08T12:30:56.399Z,56.70
2019-03-08T12:33:43.101Z,55.50
2019-03-08T12:36:26.026Z,52.70
2019-03-08T12:39:12.738Z,52.90
2019-03-08T12:41:43.264Z,54.30
2019-03-08T12:44:16.781Z,51.80
2019-03-08T12:46:53.024Z,50.50
2019-03-08T12:49:39.631Z,51.30
2019-03-08T12:52:10.160Z,53.20
2019-03-08T12:54:40.769Z,54.40
2019-03-08T12:57:14.291Z,53.50
2019-03-08T12:59:44.820Z,49.00
2019-03-08T13:02:33.883Z,43.90
2019-03-08T13:05:04.410Z,42.90
2019-03-08T13:07:40.779Z,46.50
2019-03-08T13:10:30.351Z,48.30
2019-03-08T13:12:59.242Z,47.60
2019-03-08T13:15:28.119Z,48.90
2019-03-08T13:17:57.022Z,45.20
2019-03-08T13:20:25.812Z,40.80
2019-03-08T13:22:54.600Z,38.70
2019-03-08T13:25:23.491Z,35.50
2019-03-08T13:27:52.380Z,33.90
2019-03-08T13:30:23.075Z,33.50
2019-03-08T13:32:52.037Z,32.60
2019-03-08T13:35:20.900Z,31.70
2019-03-08T13:37:49.895Z,30.80
2019-03-08T13:40:18.781Z,32.10
2019-03-08T13:42:47.678Z,32.30
2019-03-08T13:45:21.683Z,31.30
2019-03-08T13:47:50.691Z,31.70
2019-03-08T13:50:19.664Z,31.10
2019-03-08T13:52:48.869Z,31.40
2019-03-08T13:55:18.165Z,30.60
2019-03-08T13:57:47.158Z,33.00
2019-03-08T14:00:17.995Z,36.10
2019-03-08T14:02:46.878Z,40.20
2019-03-08T14:05:16.275Z,43.90
2019-03-08T14:07:45.294Z,47.70
2019-03-08T14:10:19.905Z,49.90
2019-03-08T14:12:48.896Z,51.70
2019-03-08T14:15:18.178Z,52.80
2019-03-08T14:17:47.088Z,54.50
2019-03-08T14:20:21.098Z,55.80
2019-03-08T14:22:49.977Z,56.90
2019-03-08T14:25:18.783Z,55.30
2019-03-08T14:27:47.679Z,51.50
2019-03-08T14:30:22.498Z,49.60
2019-03-08T14:32:51.481Z,49.20
2019-03-08T14:35:20.278Z,48.60
2019-03-08T14:37:52.375Z,48.30
2019-03-08T14:40:39.870Z,48.80
2019-03-08T14:43:19.241Z,49.70
2019-03-08T14:46:06.118Z,49.80
2019-03-08T14:48:35.142Z,50.50
2019-03-08T14:51:04.211Z,52.00
2019-03-08T14:53:34.317Z,52.30
2019-03-08T14:56:03.427Z,52.80
2019-03-08T14:58:32.647Z,53.20
2019-03-08T15:01:06.310Z,53.10
2019-03-08T15:03:43.035Z,53.10
2019-03-08T15:06:04.007Z,54.00
2019-03-08T15:08:32.791Z,54.30
2019-03-08T15:11:01.790Z,54.80
2019-03-08T15:13:30.572Z,55.90
2019-03-08T15:16:02.248Z,56.70
2019-03-08T15:18:31.246Z,56.90
2019-03-08T15:21:00.217Z,57.20
2019-03-08T15:23:29.206Z,57.50
2019-03-08T15:25:58.225Z,57.60
2019-03-08T15:28:27.602Z,57.70
2019-03-08T15:30:57.649Z,58.30
2019-03-08T15:33:26.713Z,58.50
2019-03-08T15:35:55.591Z,59.40
2019-03-08T15:38:24.496Z,59.80
2019-03-08T15:40:53.495Z,60.80
2019-03-08T15:43:22.583Z,61.50
2019-03-08T15:45:51.867Z,61.90
2019-03-08T15:48:22.429Z,62.40
2019-03-08T15:50:51.919Z,62.60
2019-03-08T15:53:21.118Z,63.10
2019-03-08T15:55:53.250Z,63.40
2019-03-08T15:58:20.765Z,63.40
2019-03-08T16:00:49.730Z,63.70
2019-03-08T16:03:18.636Z,63.70
2019-03-08T16:05:47.516Z,64.50
2019-03-08T16:08:16.507Z,65.00
2019-03-08T16:10:45.397Z,65.10
2019-03-08T16:13:14.293Z,64.90
2019-03-08T16:15:43.199Z,64.50
2019-03-08T16:18:12.076Z,63.10
2019-03-08T16:20:41.371Z,62.80
2019-03-08T16:23:10.362Z,60.40
2019-03-08T16:25:40.635Z,60.90
2019-03-08T16:28:10.815Z,60.10
2019-03-08T16:30:43.782Z,60.20
2019-03-08T16:33:22.141Z,57.90
2019-03-08T16:36:05.835Z,58.00
2019-03-08T16:38:36.171Z,58.20
2019-03-08T16:41:16.128Z,58.50
2019-03-08T16:43:49.220Z,58.40
2019-03-08T16:46:22.805Z,58.10
2019-03-08T16:49:14.759Z,57.80
2019-03-08T16:51:46.599Z,58.30
2019-03-08T16:54:26.342Z,58.70
2019-03-08T16:57:03.939Z,59.20
2019-03-08T16:59:34.473Z,59.00
2019-03-08T17:02:23.027Z,59.30
2019-03-08T17:05:11.879Z,59.60
2019-03-08T17:07:42.508Z,59.80
2019-03-08T17:10:15.926Z,60.20
2019-03-08T17:12:46.948Z,61.00
2019-03-08T17:15:17.478Z,61.60
2019-03-08T17:20:38.624Z,62.00
2019-03-08T17:23:09.236Z,61.50
2019-03-08T17:25:56.158Z,61.40
2019-03-08T17:28:26.671Z,62.40
2019-03-08T17:30:58.362Z,61.50
2019-03-08T17:33:32.239Z,61.30
2019-03-08T17:36:11.571Z,61.40
2019-03-08T17:38:51.112Z,61.30
2019-03-08T17:41:24.609Z,62.20
2019-03-08T17:44:01.081Z,62.00
2019-03-08T17:46:47.888Z,62.20
2019-03-08T17:49:34.599Z,62.80
2019-03-08T17:52:07.896Z,63.00
2019-03-08T17:54:38.728Z,63.70
2019-03-08T17:57:13.338Z,64.10
2019-03-08T18:00:00.370Z,64.30
2019-03-08T18:02:37.149Z,63.80
2019-03-08T18:05:11.363Z,64.10
2019-03-08T18:07:41.886Z,64.50
2019-03-08T18:10:12.622Z,64.50
2019-03-08T18:12:59.737Z,64.30
2019-03-08T18:15:30.269Z,63.90
2019-03-08T18:18:00.700Z,64.10
2019-03-08T18:20:42.997Z,64.70
2019-03-08T18:23:30.115Z,65.10
2019-03-08T18:26:06.417Z,65.30
2019-03-08T18:28:40.194Z,65.50
2019-03-08T18:31:23.024Z,65.80
2019-03-08T18:33:56.201Z,66.20
2019-03-08T18:36:29.491Z,66.30
2019-03-08T18:39:09.483Z,66.50
2019-03-08T18:41:48.777Z,66.60
2019-03-08T18:44:22.066Z,66.60
2019-03-08T18:46:52.514Z,66.80
2019-03-08T18:49:25.989Z,67.20
2019-03-08T18:51:56.426Z,67.10
2019-03-08T18:54:43.127Z,67.20
2019-03-08T18:57:13.689Z,67.70
2019-03-08T18:59:53.199Z,68.10
2019-03-08T19:02:23.725Z,68.30
2019-03-08T19:05:05.301Z,68.70
2019-03-08T19:07:53.369Z,68.90
2019-03-08T19:10:28.590Z,69.10
2019-03-08T19:13:03.326Z,69.60
2019-03-08T19:15:38.456Z,69.80
2019-03-08T19:18:16.666Z,69.80
2019-03-08T19:20:54.403Z,70.00
2019-03-08T19:23:37.295Z,69.70
2019-03-08T19:26:25.529Z,70.20
2019-03-08T19:29:04.402Z,71.10
2019-03-08T19:31:35.026Z,71.50
2019-03-08T19:34:14.934Z,73.00
2019-03-08T19:36:51.605Z,72.10
2019-03-08T19:39:22.027Z,72.90
2019-03-08T19:42:01.275Z,73.20
2019-03-08T19:44:41.607Z,75.40
2019-03-08T19:47:30.998Z,78.30
2019-03-08T19:50:13.923Z,80.30
2019-03-08T19:52:50.308Z,82.80
2019-03-08T19:55:30.706Z,84.10
2019-03-08T19:58:25.829Z,83.60
2019-03-08T20:01:02.269Z,83.70
2019-03-08T20:03:38.111Z,84.00
2019-03-08T20:06:19.213Z,83.20
2019-03-08T20:09:11.329Z,82.30
2019-03-08T20:11:45.031Z,83.90
2019-03-08T20:14:33.662Z,84.50
2019-03-08T20:17:08.422Z,81.80
2019-03-08T20:19:43.502Z,82.10
2019-03-08T20:22:29.126Z,82.60
2019-03-08T20:25:03.811Z,84.50
2019-03-08T20:27:59.329Z,84.30
2019-03-08T20:30:41.832Z,85.20
2019-03-08T20:33:12.777Z,85.20
2019-03-08T20:35:48.086Z,84.40
2019-03-08T20:38:28.371Z,84.00
2019-03-08T20:41:13.849Z,83.80
2019-03-08T20:43:58.257Z,82.60
2019-03-08T20:46:46.856Z,82.70
2019-03-08T20:49:18.928Z,81.40
2019-03-08T20:51:48.229Z,81.60
2019-03-08T20:54:22.247Z,82.10
2019-03-08T20:56:55.377Z,82.10
2019-03-08T20:59:28.376Z,82.20
2019-03-08T21:02:00.452Z,82.30
2019-03-08T21:04:30.876Z,82.80
2019-03-08T21:07:01.367Z,82.90
2019-03-08T21:09:53.674Z,82.50
2019-03-08T21:12:25.021Z,83.00
2019-03-08T21:14:58.014Z,83.50
2019-03-08T21:17:31.347Z,84.00
2019-03-08T21:20:03.955Z,84.30
2019-03-08T21:22:37.882Z,83.70
2019-03-08T21:25:14.860Z,83.70
2019-03-08T21:27:46.107Z,84.50
2019-03-08T21:30:21.224Z,83.90
2019-03-08T21:32:54.525Z,83.50
2019-03-08T21:35:23.740Z,83.20
2019-03-08T21:37:56.409Z,83.20
2019-03-08T21:40:28.730Z,82.10
2019-03-08T21:43:02.927Z,81.70
2019-03-08T21:45:32.191Z,82.60
2019-03-08T21:48:05.294Z,82.20
2019-03-08T21:50:38.812Z,81.50
2019-03-08T21:53:08.622Z,81.10
2019-03-08T21:55:38.117Z,81.60
2019-03-08T21:58:07.540Z,81.10
2019-03-08T22:00:40.963Z,81.20
2019-03-08T22:03:15.548Z,81.40
2019-03-08T22:05:49.183Z,82.10
2019-03-08T22:08:22.635Z,82.60
2019-03-08T22:11:10.786Z,82.70
2019-03-08T22:14:03.296Z,83.20
2019-03-08T22:16:35.081Z,82.60
2019-03-08T22:19:05.863Z,81.50
2019-03-08T22:21:39.578Z,81.80
2019-03-08T22:24:13.661Z,81.20
2019-03-08T22:26:43.972Z,81.10
2019-03-08T22:29:16.078Z,80.70
2019-03-08T22:31:49.716Z,80.70
2019-03-08T22:34:22.260Z,81.40
2019-03-08T22:36:55.267Z,82.30
2019-03-08T22:39:27.920Z,83.30
2019-03-08T22:42:03.601Z,85.00
2019-03-08T22:44:37.152Z,86.60
2019-03-08T22:47:11.500Z,86.90
2019-03-08T22:49:46.011Z,87.30
2019-03-08T22:52:19.673Z,86.50
2019-03-08T22:54:52.983Z,86.60
2019-03-08T22:57:27.132Z,87.80
2019-03-08T23:00:00.794Z,88.90
2019-03-08T23:02:37.783Z,89.20
2019-03-08T23:05:11.731Z,89.70
2019-03-08T23:07:46.438Z,90.00
2019-03-08T23:10:20.094Z,89.60
2019-03-08T23:12:51.120Z,90.30
2019-03-08T23:15:21.343Z,90.50
2019-03-08T23:17:54.691Z,90.90
2019-03-08T23:20:25.628Z,90.80
2019-03-08T23:22:55.085Z,90.60
2019-03-08T23:25:23.975Z,91.10
2019-03-08T23:28:03.491Z,91.20
2019-03-08T23:30:36.377Z,90.80
2019-03-08T23:33:06.765Z,90.90
2019-03-08T23:35:38.386Z,90.90
2019-03-08T23:38:11.295Z,90.90
2019-03-08T23:40:41.322Z,91.60
2019-03-08T23:43:15.634Z,91.40
2019-03-08T23:45:47.786Z,91.30
2019-03-08T23:48:19.089Z,91.50
2019-03-08T23:50:51.060Z,91.50
2019-03-08T23:53:25.151Z,91.60
2019-03-08T23:55:57.643Z,91.90
2019-03-08T23:58:27.862Z,91.40
